San Jose, Costa Rica

3:59 AM CST on February 13, 2016 (GMT -0600)
Juan Santamaria International | | Change Station
CLOSE
Current Station
Airport
Location: San Jose,
Elevation: 3018 ft
Nearby Weather Stations

Elev 3018 ft 9.99 °N, 84.21 °W | Updated 59 minutes ago

Partly Cloudy
Partly Cloudy
68 °F
Feels Like 68 °F
N
15
Wind Variable Wind from East

Today
High -- | Low -- °F
--% Chance of Precip.
Yesterday
High -- | Low -- °F
Precip. -- in
Pressure 29.97 in
Visibility 6.2 miles
Clouds Few 3500 ft
Dew Point 57 °F
Humidity 68%
Rainfall 0.00 in
Snow Depth Not available.
5:57 AM 5:44 PM
Waxing Crescent, 29% visible
METAR MROC 130900Z 10013KT 9999 FEW035 20/14 A2997 NOSIG
Pressure 29.97 in
Visibility 6.2 miles
Clouds Few 3500 ft
Dew Point 57 °F
Humidity 68%
Rainfall 0.00 in
Snow Depth Not available.
5:57 AM 5:44 PM
Waxing Crescent, 29% visible
METAR MROC 130900Z 10013KT 9999 FEW035 20/14 A2997 NOSIG

10-Day Weather Forecast

No radar image for this location.
×

Almanac

Astronomy

Feb. 13, 2016 Rise Set
Actual Time
Civil Twilight
Nautical Twilight
Astronomical Twilight
Moon
Length of Visible Light
Length of Day
Tomorrow will be .
, % of the Moon is Illuminated

Today's Extremes

Country Highs Country Lows

Community

WunderPhotos

Upload Photos

1,892,536 photos uploaded!

WunderBlog® & News

Nearby

Air Quality

  Air Quality AQ Index Pollutant
Not available.

Snow Depth

Station Depth Elevation

Earthquake Activity

City Distance Mag. Time & Date
Minimum magnitude displayed is 2.5.

Coastal Water Temperatures

Place Temperature

Stations

Nearby Weather Stations

Station Location Temp. Windchill Dew Point Humidity Wind Precip. Elev Updated Type